Current Conditions
Mostly Scattered
Clouds




Pressure
1012.92 (mb) - 29.91 (inHG)
Visibility

10.0 (km) - 6.2 (miles)
   Temperature
8  °C
46°F
0  °C
Dewpoint
57  %
 Humidity
   Wind Speed
3.6  m/s
8  mph
13  km/h
7  kts
   Wind Direction
 170°
Due South
   Airport Data
ENAL
Location Ă…lesund 10 km (6.22 mi)
Metar :ENAL 052150Z AUTO 17007KT 9999 SCT160/// 08/00 Q1013
Sun 5th April 23:50 pm
   Raw Metar Info
Raw METAR is the most common format in the world for the transmission of observational weather data. It is highly standardized through the International Civil Aviation Organization (ICAO), which allows it to be understood throughout most of the world.
   API Info
Data Provided by
https://www.checkwx.com/weather/ENAL
   © Info
CSS/SVG/PHP scripts were developed by weather34.com for use in the weather34 template © 2015-2020

Guide Info provided by Metar-Wikipedia